Дата Пункты Температура Давл., мм. Влажн., % Ветер Погодные явления
Воздуха Воды Направл. Скорость
22.11.17 08:00 Одесса 2.0 7.0 760 80 З 1 20 часов
22.11.17 05:00 Одесса 2.0 8.0 759 73 З 1 17 часов
22.11.17 02:00 Одесса 4.0 8.0 758 61 З 1 14 часов
22.11.17 11:00 Одесса 4.0 7.0 759 66 С-З 1 11 часов
22.11.17 08:00 Одесса -1.0 7.0 759 89 С-З 1 08 часов
22.11.17 05:00 Одесса -2.0 8.0 758 91 З 3 05 часов
22.11.17 02:00 Одесса -1.0 8.0 758 89 З 2 02 часа
21.11.17 08:00 Одесса 2.0 8.0 757 74 С-З 2 20 часов
21.11.17 05:00 Одесса 4.0 8.0 757 64 С-З 2 17 часов
21.11.17 02:00 Одесса 5.0 8.0 756 57 С-З 3 14 часов
21.11.17 11:00 Одесса 4.0 8.0 756 66 С-З 3 11 часов
21.11.17 08:00 Одесса 1.0 8.0 756 86 С-З 2 08 часов
21.11.17 05:00 Одесса 3.0 8.0 755 79 С-З 3 05 часов
21.11.17 02:00 Одесса 3.0 8.0 755 78 С-З 4 02 часа
20.11.17 11:00 Одесса 3.0 9.0 754 76 С 5 23 часа
20.11.17 08:00 Одесса 4.0 9.0 754 78 С 2 20 часов
20.11.17 05:00 Одесса 5.0 9.0 753 73 С 4 17 часов
20.11.17 02:00 Одесса 6.0 9.0 753 80 С 3 14 часов
20.11.17 11:00 Одесса 6.0 9.0 753 88 С 4 11 часов
20.11.17 08:00 Одесса 4.0 9.0 753 93 С 3 08 часов
Количество строк
1 2 3 4 5 6 7 8 9 10
Page 9 of 305